sensor_id;sensor_type;location;lat;lon;timestamp;pressure;altitude;pressure_sealevel;temperature;humidity
22283;BME280;11310;51.528;21.204;2023-02-26T00:01:46;98491.88;;;2.12;100.00
22283;BME280;11310;51.528;21.204;2023-02-26T00:04:17;98505.72;;;2.11;100.00
22283;BME280;11310;51.528;21.204;2023-02-26T00:06:45;98511.75;;;2.10;100.00
22283;BME280;11310;51.528;21.204;2023-02-26T00:09:24;98513.53;;;2.10;100.00
22283;BME280;11310;51.528;21.204;2023-02-26T00:11:54;98517.78;;;2.11;100.00
22283;BME280;11310;51.528;21.204;2023-02-26T00:14:24;98523.88;;;2.10;100.00
22283;BME280;11310;51.528;21.204;2023-02-26T00:17:04;98527.41;;;2.07;100.00
22283;BME280;11310;51.528;21.204;2023-02-26T00:19:38;98529.28;;;2.04;100.00
22283;BME280;11310;51.528;21.204;2023-02-26T00:22:07;98534.59;;;1.99;100.00
22283;BME280;11310;51.528;21.204;2023-02-26T00:24:36;98547.63;;;1.96;100.00
22283;BME280;11310;51.528;21.204;2023-02-26T00:27:05;98549.44;;;1.94;100.00
22283;BME280;11310;51.528;21.204;2023-02-26T00:29:34;98556.28;;;1.95;100.00
22283;BME280;11310;51.528;21.204;2023-02-26T00:32:04;98557.13;;;1.96;100.00
22283;BME280;11310;51.528;21.204;2023-02-26T00:34:34;98550.38;;;1.92;100.00
22283;BME280;11310;51.528;21.204;2023-02-26T00:37:13;98554.75;;;1.90;100.00
22283;BME280;11310;51.528;21.204;2023-02-26T00:39:50;98566.00;;;1.89;100.00
22283;BME280;11310;51.528;21.204;2023-02-26T00:42:22;98559.91;;;1.90;100.00
22283;BME280;11310;51.528;21.204;2023-02-26T00:44:52;98565.22;;;1.87;100.00
22283;BME280;11310;51.528;21.204;2023-02-26T00:47:27;98571.28;;;1.86;100.00
22283;BME280;11310;51.528;21.204;2023-02-26T00:50:04;98578.22;;;1.84;100.00
22283;BME280;11310;51.528;21.204;2023-02-26T00:52:43;98589.47;;;1.83;100.00
22283;BME280;11310;51.528;21.204;2023-02-26T00:55:14;98589.53;;;1.81;100.00
22283;BME280;11310;51.528;21.204;2023-02-26T00:57:42;98597.31;;;1.80;100.00
22283;BME280;11310;51.528;21.204;2023-02-26T01:00:13;98594.72;;;1.80;100.00
22283;BME280;11310;51.528;21.204;2023-02-26T01:02:43;98598.22;;;1.79;100.00
22283;BME280;11310;51.528;21.204;2023-02-26T01:05:13;98598.22;;;1.79;100.00
22283;BME280;11310;51.528;21.204;2023-02-26T01:07:49;98609.47;;;1.78;100.00
22283;BME280;11310;51.528;21.204;2023-02-26T01:10:21;98610.38;;;1.77;100.00
22283;BME280;11310;51.528;21.204;2023-02-26T01:12:50;98605.25;;;1.75;100.00
22283;BME280;11310;51.528;21.204;2023-02-26T01:15:20;98612.19;;;1.73;100.00
22283;BME280;11310;51.528;21.204;2023-02-26T01:17:52;98616.53;;;1.73;100.00
22283;BME280;11310;51.528;21.204;2023-02-26T01:20:25;98624.31;;;1.71;100.00
22283;BME280;11310;51.528;21.204;2023-02-26T01:23:02;98629.53;;;1.70;100.00
22283;BME280;11310;51.528;21.204;2023-02-26T01:25:37;98638.16;;;1.70;100.00
22283;BME280;11310;51.528;21.204;2023-02-26T01:28:07;98646.84;;;1.68;100.00
22283;BME280;11310;51.528;21.204;2023-02-26T01:30:37;98647.72;;;1.67;100.00
22283;BME280;11310;51.528;21.204;2023-02-26T01:33:10;98647.84;;;1.64;100.00
22283;BME280;11310;51.528;21.204;2023-02-26T01:35:44;98661.66;;;1.63;100.00
22283;BME280;11310;51.528;21.204;2023-02-26T01:38:21;98658.19;;;1.64;100.00
22283;BME280;11310;51.528;21.204;2023-02-26T01:41:09;98655.69;;;1.61;100.00
22283;BME280;11310;51.528;21.204;2023-02-26T01:43:46;98665.13;;;1.62;100.00
22283;BME280;11310;51.528;21.204;2023-02-26T01:46:20;98673.00;;;1.59;100.00
22283;BME280;11310;51.528;21.204;2023-02-26T01:48:52;98671.34;;;1.56;100.00
22283;BME280;11310;51.528;21.204;2023-02-26T01:51:44;98682.63;;;1.54;100.00
22283;BME280;11310;51.528;21.204;2023-02-26T01:54:17;98686.94;;;1.53;100.00
22283;BME280;11310;51.528;21.204;2023-02-26T01:56:50;98693.81;;;1.53;100.00
22283;BME280;11310;51.528;21.204;2023-02-26T01:59:20;98694.72;;;1.52;100.00
22283;BME280;11310;51.528;21.204;2023-02-26T02:01:52;98702.47;;;1.52;100.00
22283;BME280;11310;51.528;21.204;2023-02-26T02:04:22;98696.41;;;1.53;100.00
22283;BME280;11310;51.528;21.204;2023-02-26T02:06:55;98712.78;;;1.53;100.00
22283;BME280;11310;51.528;21.204;2023-02-26T02:09:25;98710.94;;;1.57;100.00
22283;BME280;11310;51.528;21.204;2023-02-26T02:12:05;98719.53;;;1.57;100.00
22283;BME280;11310;51.528;21.204;2023-02-26T02:14:48;98729.78;;;1.60;100.00
22283;BME280;11310;51.528;21.204;2023-02-26T02:17:23;98729.78;;;1.60;100.00
22283;BME280;11310;51.528;21.204;2023-02-26T02:20:23;98733.28;;;1.58;100.00
22283;BME280;11310;51.528;21.204;2023-02-26T02:23:18;98735.13;;;1.54;100.00
22283;BME280;11310;51.528;21.204;2023-02-26T02:26:17;98747.31;;;1.51;100.00
22283;BME280;11310;51.528;21.204;2023-02-26T02:29:02;98755.13;;;1.48;100.00
22283;BME280;11310;51.528;21.204;2023-02-26T02:31:40;98755.28;;;1.43;100.00
22283;BME280;11310;51.528;21.204;2023-02-26T02:34:15;98760.50;;;1.42;100.00
22283;BME280;11310;51.528;21.204;2023-02-26T02:36:52;98769.13;;;1.41;100.00
22283;BME280;11310;51.528;21.204;2023-02-26T02:39:28;98763.88;;;1.44;100.00
22283;BME280;11310;51.528;21.204;2023-02-26T02:42:01;98775.06;;;1.44;100.00
22283;BME280;11310;51.528;21.204;2023-02-26T02:44:36;98776.69;;;1.47;100.00
22283;BME280;11310;51.528;21.204;2023-02-26T02:47:09;98783.59;;;1.46;100.00
22283;BME280;11310;51.528;21.204;2023-02-26T02:49:45;98786.91;;;1.51;100.00
22283;BME280;11310;51.528;21.204;2023-02-26T02:52:20;98792.91;;;1.52;100.00
22283;BME280;11310;51.528;21.204;2023-02-26T02:54:55;98798.09;;;1.50;100.00
22283;BME280;11310;51.528;21.204;2023-02-26T02:57:28;98798.22;;;1.47;100.00
22283;BME280;11310;51.528;21.204;2023-02-26T03:00:00;98812.06;;;1.45;100.00
22283;BME280;11310;51.528;21.204;2023-02-26T03:02:38;98811.28;;;1.41;100.00
22283;BME280;11310;51.528;21.204;2023-02-26T03:05:10;98819.16;;;1.38;100.00
22283;BME280;11310;51.528;21.204;2023-02-26T03:07:43;98821.69;;;1.40;100.00
22283;BME280;11310;51.528;21.204;2023-02-26T03:10:14;98829.53;;;1.37;100.00
22283;BME280;11310;51.528;21.204;2023-02-26T03:12:43;98828.59;;;1.39;100.00
22283;BME280;11310;51.528;21.204;2023-02-26T03:15:13;98831.13;;;1.41;100.00
22283;BME280;11310;51.528;21.204;2023-02-26T03:17:52;98831.22;;;1.38;100.00
22283;BME280;11310;51.528;21.204;2023-02-26T03:20:26;98832.06;;;1.38;100.00
22283;BME280;11310;51.528;21.204;2023-02-26T03:23:04;98837.28;;;1.37;100.00
22283;BME280;11310;51.528;21.204;2023-02-26T03:25:41;98835.59;;;1.36;100.00
22283;BME280;11310;51.528;21.204;2023-02-26T03:28:17;98851.13;;;1.34;100.00
22283;BME280;11310;51.528;21.204;2023-02-26T03:30:55;98856.41;;;1.30;100.00
22283;BME280;11310;51.528;21.204;2023-02-26T03:33:32;98853.03;;;1.28;100.00
22283;BME280;11310;51.528;21.204;2023-02-26T03:36:06;98850.53;;;1.25;100.00
22283;BME280;11310;51.528;21.204;2023-02-26T03:38:46;98865.19;;;1.24;100.00
22283;BME280;11310;51.528;21.204;2023-02-26T03:41:20;98860.84;;;1.25;100.00
22283;BME280;11310;51.528;21.204;2023-02-26T03:43:55;98860.84;;;1.25;100.00
22283;BME280;11310;51.528;21.204;2023-02-26T03:46:28;98871.09;;;1.28;100.00
22283;BME280;11310;51.528;21.204;2023-02-26T03:49:05;98872.03;;;1.25;100.00
22283;BME280;11310;51.528;21.204;2023-02-26T03:51:37;98872.00;;;1.27;100.00
22283;BME280;11310;51.528;21.204;2023-02-26T03:54:40;98877.38;;;1.19;100.00
22283;BME280;11310;51.528;21.204;2023-02-26T03:57:46;98874.00;;;1.16;100.00
22283;BME280;11310;51.528;21.204;2023-02-26T04:00:26;98885.22;;;1.15;100.00
22283;BME280;11310;51.528;21.204;2023-02-26T04:03:00;98895.63;;;1.12;100.00
22283;BME280;11310;51.528;21.204;2023-02-26T04:05:34;98891.41;;;1.09;100.00
22283;BME280;11310;51.528;21.204;2023-02-26T04:08:04;98895.63;;;1.12;100.00
22283;BME280;11310;51.528;21.204;2023-02-26T04:10:39;98905.13;;;1.11;100.00
22283;BME280;11310;51.528;21.204;2023-02-26T04:13:11;98907.75;;;1.10;100.00
22283;BME280;11310;51.528;21.204;2023-02-26T04:15:42;98913.84;;;1.07;100.00
22283;BME280;11310;51.528;21.204;2023-02-26T04:18:11;98915.59;;;1.05;100.00
22283;BME280;11310;51.528;21.204;2023-02-26T04:20:45;98915.59;;;1.05;100.00
22283;BME280;11310;51.528;21.204;2023-02-26T04:23:13;98918.31;;;1.01;100.00
22283;BME280;11310;51.528;21.204;2023-02-26T04:25:42;98921.03;;;0.96;100.00
22283;BME280;11310;51.528;21.204;2023-02-26T04:28:12;98932.25;;;0.94;100.00
22283;BME280;11310;51.528;21.204;2023-02-26T04:30:43;98932.25;;;0.94;100.00
22283;BME280;11310;51.528;21.204;2023-02-26T04:33:13;98930.56;;;0.93;100.00
22283;BME280;11310;51.528;21.204;2023-02-26T04:35:46;98938.31;;;0.93;100.00
22283;BME280;11310;51.528;21.204;2023-02-26T04:38:15;98945.16;;;0.94;100.00
22283;BME280;11310;51.528;21.204;2023-02-26T04:40:44;98945.16;;;0.94;100.00
22283;BME280;11310;51.528;21.204;2023-02-26T04:43:15;98961.56;;;0.91;100.00
22283;BME280;11310;51.528;21.204;2023-02-26T04:45:53;98962.44;;;0.92;100.00
22283;BME280;11310;51.528;21.204;2023-02-26T04:48:22;98963.31;;;0.91;100.00
22283;BME280;11310;51.528;21.204;2023-02-26T04:50:53;98965.94;;;0.89;100.00
22283;BME280;11310;51.528;21.204;2023-02-26T04:53:22;98970.19;;;0.92;100.00
22283;BME280;11310;51.528;21.204;2023-02-26T04:55:51;98973.53;;;0.95;100.00
22283;BME280;11310;51.528;21.204;2023-02-26T04:58:20;98972.66;;;0.96;100.00
22283;BME280;11310;51.528;21.204;2023-02-26T05:00:50;98980.44;;;0.95;100.00
22283;BME280;11310;51.528;21.204;2023-02-26T05:03:20;98976.25;;;0.89;100.00
22283;BME280;11310;51.528;21.204;2023-02-26T05:05:49;98985.59;;;0.95;100.00
22283;BME280;11310;51.528;21.204;2023-02-26T05:08:20;98981.28;;;0.94;100.00
22283;BME280;11310;51.528;21.204;2023-02-26T05:10:50;98988.25;;;0.92;100.00
22283;BME280;11310;51.528;21.204;2023-02-26T05:13:21;98986.53;;;0.92;100.00
22283;BME280;11310;51.528;21.204;2023-02-26T05:15:52;98996.00;;;0.90;100.00
22283;BME280;11310;51.528;21.204;2023-02-26T05:18:22;99008.94;;;0.89;100.00
22283;BME280;11310;51.528;21.204;2023-02-26T05:20:52;99014.22;;;0.86;100.00
22283;BME280;11310;51.528;21.204;2023-02-26T05:23:23;99014.28;;;0.83;100.00
22283;BME280;11310;51.528;21.204;2023-02-26T05:25:54;99028.88;;;0.84;100.00
22283;BME280;11310;51.528;21.204;2023-02-26T05:28:24;99032.34;;;0.83;100.00
22283;BME280;11310;51.528;21.204;2023-02-26T05:30:56;99034.03;;;0.84;100.00
22283;BME280;11310;51.528;21.204;2023-02-26T05:33:25;99031.47;;;0.82;100.00
22283;BME280;11310;51.528;21.204;2023-02-26T05:35:56;99028.97;;;0.81;100.00
22283;BME280;11310;51.528;21.204;2023-02-26T05:38:26;99039.19;;;0.84;100.00
22283;BME280;11310;51.528;21.204;2023-02-26T05:40:56;99046.88;;;0.87;100.00
22283;BME280;11310;51.528;21.204;2023-02-26T05:43:26;99050.25;;;0.89;100.00
22283;BME280;11310;51.528;21.204;2023-02-26T05:45:55;99045.97;;;0.88;100.00
22283;BME280;11310;51.528;21.204;2023-02-26T05:48:25;99049.31;;;0.93;100.00
22283;BME280;11310;51.528;21.204;2023-02-26T05:50:53;99061.31;;;0.94;100.00
22283;BME280;11310;51.528;21.204;2023-02-26T05:53:22;99064.91;;;0.88;100.00
22283;BME280;11310;51.528;21.204;2023-02-26T05:55:53;99061.47;;;0.88;100.00
22283;BME280;11310;51.528;21.204;2023-02-26T05:58:21;99075.22;;;0.90;100.00
22283;BME280;11310;51.528;21.204;2023-02-26T06:00:50;99080.38;;;0.90;100.00
22283;BME280;11310;51.528;21.204;2023-02-26T06:03:19;99086.34;;;0.90;100.00
22283;BME280;11310;51.528;21.204;2023-02-26T06:05:47;99092.44;;;0.88;100.00
22283;BME280;11310;51.528;21.204;2023-02-26T06:08:16;99094.22;;;0.86;100.00
22283;BME280;11310;51.528;21.204;2023-02-26T06:10:45;99098.44;;;0.90;100.00
22283;BME280;11310;51.528;21.204;2023-02-26T06:13:15;99105.28;;;0.91;100.00
22283;BME280;11310;51.528;21.204;2023-02-26T06:15:43;99109.59;;;0.90;100.00
22283;BME280;11310;51.528;21.204;2023-02-26T06:18:11;99114.69;;;0.93;100.00
22283;BME280;11310;51.528;21.204;2023-02-26T06:20:41;99117.31;;;0.92;100.00
22283;BME280;11310;51.528;21.204;2023-02-26T06:23:10;99130.22;;;0.92;100.00
22283;BME280;11310;51.528;21.204;2023-02-26T06:25:38;99130.25;;;0.90;100.00
22283;BME280;11310;51.528;21.204;2023-02-26T06:28:07;99142.31;;;0.90;100.00
22283;BME280;11310;51.528;21.204;2023-02-26T06:30:37;99143.13;;;0.92;100.00
22283;BME280;11310;51.528;21.204;2023-02-26T06:33:05;99156.03;;;0.92;100.00
22283;BME280;11310;51.528;21.204;2023-02-26T06:35:34;99163.00;;;0.88;100.00
22283;BME280;11310;51.528;21.204;2023-02-26T06:38:03;99171.53;;;0.90;100.00
22283;BME280;11310;51.528;21.204;2023-02-26T06:40:31;99178.38;;;0.93;100.00
22283;BME280;11310;51.528;21.204;2023-02-26T06:43:00;99184.38;;;0.95;100.00
22283;BME280;11310;51.528;21.204;2023-02-26T06:45:28;99190.38;;;0.94;100.00
22283;BME280;11310;51.528;21.204;2023-02-26T06:47:58;99192.13;;;0.95;100.00
22283;BME280;11310;51.528;21.204;2023-02-26T06:50:27;99197.28;;;0.95;100.00
22283;BME280;11310;51.528;21.204;2023-02-26T06:52:55;99199.00;;;0.94;100.00
22283;BME280;11310;51.528;21.204;2023-02-26T06:55:25;99203.25;;;0.95;100.00
22283;BME280;11310;51.528;21.204;2023-02-26T06:57:54;99210.16;;;0.96;100.00
22283;BME280;11310;51.528;21.204;2023-02-26T07:00:24;99212.69;;;0.98;100.00
22283;BME280;11310;51.528;21.204;2023-02-26T07:02:55;99211.75;;;1.00;100.00
22283;BME280;11310;51.528;21.204;2023-02-26T07:05:25;99221.31;;;0.97;100.00
22283;BME280;11310;51.528;21.204;2023-02-26T07:07:54;99219.66;;;0.93;100.00
22283;BME280;11310;51.528;21.204;2023-02-26T07:10:23;99218.84;;;0.92;100.00
22283;BME280;11310;51.528;21.204;2023-02-26T07:12:52;99230.09;;;0.90;100.00
22283;BME280;11310;51.528;21.204;2023-02-26T07:15:20;99231.81;;;0.88;100.00
22283;BME280;11310;51.528;21.204;2023-02-26T07:17:49;99236.19;;;0.86;100.00
22283;BME280;11310;51.528;21.204;2023-02-26T07:20:18;99240.59;;;0.81;100.00
22283;BME280;11310;51.528;21.204;2023-02-26T07:22:48;99249.25;;;0.78;100.00
22283;BME280;11310;51.528;21.204;2023-02-26T07:25:17;99246.72;;;0.75;100.00
22283;BME280;11310;51.528;21.204;2023-02-26T07:27:46;99253.63;;;0.73;100.00
22283;BME280;11310;51.528;21.204;2023-02-26T07:30:15;99254.53;;;0.71;100.00
22283;BME280;11310;51.528;21.204;2023-02-26T07:32:43;99263.09;;;0.73;100.00
22283;BME280;11310;51.528;21.204;2023-02-26T07:35:12;99265.69;;;0.73;100.00
22283;BME280;11310;51.528;21.204;2023-02-26T07:37:41;99273.44;;;0.73;100.00
22283;BME280;11310;51.528;21.204;2023-02-26T07:40:11;99277.69;;;0.74;100.00
22283;BME280;11310;51.528;21.204;2023-02-26T07:42:40;99274.38;;;0.67;100.00
22283;BME280;11310;51.528;21.204;2023-02-26T07:45:10;99283.88;;;0.67;100.00
22283;BME280;11310;51.528;21.204;2023-02-26T07:47:39;99294.97;;;0.72;100.00
22283;BME280;11310;51.528;21.204;2023-02-26T07:50:09;99300.97;;;0.71;100.00
22283;BME280;11310;51.528;21.204;2023-02-26T07:52:38;99299.41;;;0.64;100.00
22283;BME280;11310;51.528;21.204;2023-02-26T07:55:08;99308.88;;;0.62;100.00
22283;BME280;11310;51.528;21.204;2023-02-26T07:57:39;99325.31;;;0.58;100.00
22283;BME280;11310;51.528;21.204;2023-02-26T08:00:09;99327.91;;;0.56;100.00
22283;BME280;11310;51.528;21.204;2023-02-26T08:02:41;99340.84;;;0.55;100.00
22283;BME280;11310;51.528;21.204;2023-02-26T08:05:09;99338.31;;;0.52;100.00
22283;BME280;11310;51.528;21.204;2023-02-26T08:07:38;99342.56;;;0.52;100.00
22283;BME280;11310;51.528;21.204;2023-02-26T08:10:08;99355.44;;;0.56;100.00
22283;BME280;11310;51.528;21.204;2023-02-26T08:12:39;99357.22;;;0.52;100.00
22283;BME280;11310;51.528;21.204;2023-02-26T08:15:08;99356.44;;;0.47;100.00
22283;BME280;11310;51.528;21.204;2023-02-26T08:17:38;99360.75;;;0.47;100.00
22283;BME280;11310;51.528;21.204;2023-02-26T08:20:07;99366.81;;;0.44;100.00
22283;BME280;11310;51.528;21.204;2023-02-26T08:22:36;99365.94;;;0.45;100.00
22283;BME280;11310;51.528;21.204;2023-02-26T08:25:06;99370.31;;;0.40;100.00
22283;BME280;11310;51.528;21.204;2023-02-26T08:27:35;99374.72;;;0.33;100.00
22283;BME280;11310;51.528;21.204;2023-02-26T08:30:07;99370.47;;;0.29;100.00
22283;BME280;11310;51.528;21.204;2023-02-26T08:32:36;99382.53;;;0.31;100.00
22283;BME280;11310;51.528;21.204;2023-02-26T08:35:06;99391.06;;;0.34;100.00
22283;BME280;11310;51.528;21.204;2023-02-26T08:37:35;99391.84;;;0.39;100.00
22283;BME280;11310;51.528;21.204;2023-02-26T08:40:05;99391.69;;;0.47;100.00
22283;BME280;11310;51.528;21.204;2023-02-26T08:42:35;99396.81;;;0.51;100.00
22283;BME280;11310;51.528;21.204;2023-02-26T08:45:06;99395.06;;;0.52;100.00
22283;BME280;11310;51.528;21.204;2023-02-26T08:47:35;99402.78;;;0.52;100.00
22283;BME280;11310;51.528;21.204;2023-02-26T08:50:14;99412.22;;;0.52;100.00
22283;BME280;11310;51.528;21.204;2023-02-26T08:52:43;99414.03;;;0.49;100.00
22283;BME280;11310;51.528;21.204;2023-02-26T08:55:12;99419.16;;;0.51;100.00
22283;BME280;11310;51.528;21.204;2023-02-26T08:57:40;99414.78;;;0.56;100.00
22283;BME280;11310;51.528;21.204;2023-02-26T09:00:12;99419.81;;;0.62;100.00
22283;BME280;11310;51.528;21.204;2023-02-26T09:02:42;99415.41;;;0.68;100.00
22283;BME280;11310;51.528;21.204;2023-02-26T09:05:11;99424.00;;;0.70;100.00
22283;BME280;11310;51.528;21.204;2023-02-26T09:07:41;99431.72;;;0.72;100.00
22283;BME280;11310;51.528;21.204;2023-02-26T09:10:11;99425.69;;;0.73;100.00
22283;BME280;11310;51.528;21.204;2023-02-26T09:12:41;99439.41;;;0.73;100.00
22283;BME280;11310;51.528;21.204;2023-02-26T09:15:11;99430.84;;;0.73;100.00
22283;BME280;11310;51.528;21.204;2023-02-26T09:17:41;99445.34;;;0.80;100.00
22283;BME280;11310;51.528;21.204;2023-02-26T09:20:11;99444.41;;;0.84;100.00
22283;BME280;11310;51.528;21.204;2023-02-26T09:22:40;99451.22;;;0.89;100.00
22283;BME280;11310;51.528;21.204;2023-02-26T09:25:10;99460.69;;;0.89;100.00
22283;BME280;11310;51.528;21.204;2023-02-26T09:27:39;99461.56;;;0.86;100.00
22283;BME280;11310;51.528;21.204;2023-02-26T09:30:08;99477.03;;;0.88;100.00
22283;BME280;11310;51.528;21.204;2023-02-26T09:32:42;99475.19;;;0.96;100.00
22283;BME280;11310;51.528;21.204;2023-02-26T09:35:11;99487.09;;;1.04;100.00
22283;BME280;11310;51.528;21.204;2023-02-26T09:37:39;99484.44;;;1.09;100.00
22283;BME280;11310;51.528;21.204;2023-02-26T09:40:16;99498.16;;;1.12;100.00
22283;BME280;11310;51.528;21.204;2023-02-26T09:42:59;99503.22;;;1.17;100.00
22283;BME280;11310;51.528;21.204;2023-02-26T09:45:33;99501.34;;;1.26;100.00
22283;BME280;11310;51.528;21.204;2023-02-26T09:48:09;99509.91;;;1.30;100.00
22283;BME280;11310;51.528;21.204;2023-02-26T09:50:42;99515.91;;;1.32;100.00
22283;BME280;11310;51.528;21.204;2023-02-26T09:53:17;99518.41;;;1.35;100.00
22283;BME280;11310;51.528;21.204;2023-02-26T09:55:48;99513.31;;;1.32;100.00
22283;BME280;11310;51.528;21.204;2023-02-26T09:58:21;99522.75;;;1.34;100.00
22283;BME280;11310;51.528;21.204;2023-02-26T10:00:59;99524.53;;;1.31;100.00
22283;BME280;11310;51.528;21.204;2023-02-26T10:03:42;99525.19;;;1.42;100.00
22283;BME280;11310;51.528;21.204;2023-02-26T10:06:23;99534.41;;;1.56;100.00
22283;BME280;11310;51.528;21.204;2023-02-26T10:09:23;99534.28;;;1.64;100.00
22283;BME280;11310;51.528;21.204;2023-02-26T10:12:02;99540.94;;;1.75;100.00
22283;BME280;11310;51.528;21.204;2023-02-26T10:14:36;99545.22;;;1.78;100.00
22283;BME280;11310;51.528;21.204;2023-02-26T10:17:13;99542.75;;;1.72;100.00
22283;BME280;11310;51.528;21.204;2023-02-26T10:19:49;99546.16;;;1.72;97.99
22283;BME280;11310;51.528;21.204;2023-02-26T10:22:25;99540.94;;;1.75;99.91
22283;BME280;11310;51.528;21.204;2023-02-26T10:24:59;99543.94;;;2.00;100.00
22283;BME280;11310;51.528;21.204;2023-02-26T10:27:39;99545.09;;;2.26;100.00
22283;BME280;11310;51.528;21.204;2023-02-26T10:30:13;99547.47;;;2.37;92.08
22283;BME280;11310;51.528;21.204;2023-02-26T10:32:54;99542.28;;;2.37;96.68
22283;BME280;11310;51.528;21.204;2023-02-26T10:35:31;99549.44;;;3.02;97.33
22283;BME280;11310;51.528;21.204;2023-02-26T10:38:09;99550.34;;;4.00;90.53
22283;BME280;11310;51.528;21.204;2023-02-26T10:40:42;99559.78;;;4.91;86.10
22283;BME280;11310;51.528;21.204;2023-02-26T10:43:15;99566.06;;;4.55;87.28
22283;BME280;11310;51.528;21.204;2023-02-26T10:45:57;99580.38;;;4.10;88.15
22283;BME280;11310;51.528;21.204;2023-02-26T10:48:45;99584.53;;;3.50;88.65
22283;BME280;11310;51.528;21.204;2023-02-26T10:51:21;99585.66;;;3.05;89.96
22283;BME280;11310;51.528;21.204;2023-02-26T10:53:56;99593.56;;;2.97;93.59
22283;BME280;11310;51.528;21.204;2023-02-26T10:56:28;99601.25;;;3.02;90.19
22283;BME280;11310;51.528;21.204;2023-02-26T10:58:58;99601.38;;;3.32;91.67
22283;BME280;11310;51.528;21.204;2023-02-26T11:01:29;99605.59;;;3.38;92.80
22283;BME280;11310;51.528;21.204;2023-02-26T11:04:00;99607.41;;;3.34;92.71
22283;BME280;11310;51.528;21.204;2023-02-26T11:06:33;99614.09;;;3.06;88.98
22283;BME280;11310;51.528;21.204;2023-02-26T11:09:06;99615.63;;;2.77;92.52
22283;BME280;11310;51.528;21.204;2023-02-26T11:11:45;99626.38;;;2.59;93.94
22283;BME280;11310;51.528;21.204;2023-02-26T11:14:15;99626.56;;;2.50;95.59
22283;BME280;11310;51.528;21.204;2023-02-26T11:16:47;99625.72;;;2.48;96.74
22283;BME280;11310;51.528;21.204;2023-02-26T11:19:19;99637.03;;;2.44;96.47
22283;BME280;11310;51.528;21.204;2023-02-26T11:21:54;99647.56;;;2.35;96.74
22283;BME280;11310;51.528;21.204;2023-02-26T11:24:29;99648.47;;;2.32;96.97
22283;BME280;11310;51.528;21.204;2023-02-26T11:27:04;99643.41;;;2.26;95.90
22283;BME280;11310;51.528;21.204;2023-02-26T11:29:36;99647.13;;;2.13;94.63
22283;BME280;11310;51.528;21.204;2023-02-26T11:32:08;99652.31;;;2.10;95.86
22283;BME280;11310;51.528;21.204;2023-02-26T11:34:45;99656.72;;;2.05;96.87
22283;BME280;11310;51.528;21.204;2023-02-26T11:37:18;99653.34;;;2.02;97.53
22283;BME280;11310;51.528;21.204;2023-02-26T11:39:51;99669.81;;;1.98;97.32
22283;BME280;11310;51.528;21.204;2023-02-26T11:42:22;99674.25;;;1.90;97.26
22283;BME280;11310;51.528;21.204;2023-02-26T11:44:51;99670.22;;;1.75;95.69
22283;BME280;11310;51.528;21.204;2023-02-26T11:47:24;99675.59;;;1.62;97.17
22283;BME280;11310;51.528;21.204;2023-02-26T11:49:55;99682.63;;;1.54;98.67
22283;BME280;11310;51.528;21.204;2023-02-26T11:52:32;99682.66;;;1.51;98.34
22283;BME280;11310;51.528;21.204;2023-02-26T11:55:03;99696.50;;;1.48;100.00
22283;BME280;11310;51.528;21.204;2023-02-26T11:57:33;99700.00;;;1.43;99.62
22283;BME280;11310;51.528;21.204;2023-02-26T12:00:17;99695.81;;;1.36;99.59
22283;BME280;11310;51.528;21.204;2023-02-26T12:02:47;99701.91;;;1.32;98.57
22283;BME280;11310;51.528;21.204;2023-02-26T12:05:17;99697.75;;;1.22;97.90
22283;BME280;11310;51.528;21.204;2023-02-26T12:07:49;99710.56;;;1.29;99.06
22283;BME280;11310;51.528;21.204;2023-02-26T12:10:23;99719.94;;;1.35;98.98
22283;BME280;11310;51.528;21.204;2023-02-26T12:13:02;99719.06;;;1.36;98.18
22283;BME280;11310;51.528;21.204;2023-02-26T12:15:37;99725.94;;;1.37;96.80
22283;BME280;11310;51.528;21.204;2023-02-26T12:18:36;99726.75;;;1.40;97.87
22283;BME280;11310;51.528;21.204;2023-02-26T12:21:16;99730.09;;;1.47;98.49
22283;BME280;11310;51.528;21.204;2023-02-26T12:26:53;99740.41;;;1.50;97.56
22283;BME280;11310;51.528;21.204;2023-02-26T12:32:39;99744.97;;;1.30;97.98
22283;BME280;11310;51.528;21.204;2023-02-26T12:35:38;99751.03;;;1.29;99.01
22283;BME280;11310;51.528;21.204;2023-02-26T12:38:18;99760.56;;;1.25;98.13
22283;BME280;11310;51.528;21.204;2023-02-26T12:41:23;99769.19;;;1.23;98.87
22283;BME280;11310;51.528;21.204;2023-02-26T12:44:00;99770.16;;;1.14;99.15
22283;BME280;11310;51.528;21.204;2023-02-26T12:46:49;99769.31;;;1.12;100.00
22283;BME280;11310;51.528;21.204;2023-02-26T12:49:42;99771.91;;;1.12;100.00
22283;BME280;11310;51.528;21.204;2023-02-26T12:55:16;99775.38;;;1.10;100.00
22283;BME280;11310;51.528;21.204;2023-02-26T12:58:11;99774.56;;;1.08;100.00
22283;BME280;11310;51.528;21.204;2023-02-26T13:01:06;99783.06;;;1.14;100.00
22283;BME280;11310;51.528;21.204;2023-02-26T13:06:54;99782.25;;;1.11;98.99
22283;BME280;11310;51.528;21.204;2023-02-26T13:09:36;99788.34;;;1.05;100.00
22283;BME280;11310;51.528;21.204;2023-02-26T13:12:16;99795.25;;;1.05;100.00
22283;BME280;11310;51.528;21.204;2023-02-26T13:14:54;99788.41;;;0.99;100.00
22283;BME280;11310;51.528;21.204;2023-02-26T13:17:33;99797.84;;;1.02;100.00
22283;BME280;11310;51.528;21.204;2023-02-26T13:20:11;99797.94;;;0.97;100.00
22283;BME280;11310;51.528;21.204;2023-02-26T13:22:44;99803.97;;;0.95;100.00
22283;BME280;11310;51.528;21.204;2023-02-26T13:25:18;99809.97;;;0.95;100.00
22283;BME280;11310;51.528;21.204;2023-02-26T13:27:54;99812.56;;;0.95;100.00
22283;BME280;11310;51.528;21.204;2023-02-26T13:30:29;99814.28;;;0.96;100.00
22283;BME280;11310;51.528;21.204;2023-02-26T13:33:01;99815.22;;;0.91;100.00
22283;BME280;11310;51.528;21.204;2023-02-26T13:35:34;99826.41;;;0.88;100.00
22283;BME280;11310;51.528;21.204;2023-02-26T13:38:13;99830.72;;;0.89;100.00